M I D A S
Marine Information and Data Acquisition System
Tripno 231 of the Zeeleeuw from 2002-03-28 06:57:56 to 2002-03-28 13:16:46
Back to CruiseResearch ActivitiesStationsMapUnderway DataData graphs

EquipmentUnitsComments
TimeDGPSUTC
LatitudeDGPSDM.mWGS84
LongitudeDGPSDM.mWGS84
SpeedMeteo Stationm/sRelative wind speed
DirectionMeteo StationdegRelative wind direction
TemperatureMeteo Stationdeg CelciusAir temperature
PressureMeteo StationPaAtmospheric pressure
HumidityMeteo Station%Relative humidity
Missing or incorrect values are displayed as -999
Metereological data collected by the RV Zeeleeuw from 2002-03-28 06:57:56 to 2002-03-28 13:16:46
Time Latitude Longitude Speed Direction Temperature Pressure Humidity
2002-03-28 07:00 51°13.687 2°55.906 2.9 261 2.9 102930 74
2002-03-28 07:01 51°13.688 2°55.907 2.5 262 3 102930 74
2002-03-28 07:02 51°13.689 2°55.906 2.6 259 3 102930 74
2002-03-28 07:03 51°13.688 2°55.906 2.6 250 3 102930 73
2002-03-28 07:04 51°13.688 2°55.906 3.5 259 3 102930 73
2002-03-28 07:05 51°13.688 2°55.906 3.5 254 3 102930 73
2002-03-28 07:06 51°13.688 2°55.906 2.9 243 3 102930 73
2002-03-28 07:07 51°13.689 2°55.907 1.7 265 3 102940 73
2002-03-28 07:08 51°13.689 2°55.906 3.7 256 3 102930 73
2002-03-28 07:09 51°13.689 2°55.906 2.7 257 3.1 102930 73
2002-03-28 07:10 51°13.689 2°55.906 2.8 258 3 102940 73
2002-03-28 07:11 51°13.688 2°55.905 2.3 261 3.1 102930 73
2002-03-28 07:12 51°13.69 2°55.906 2 267 3.1 102930 73
2002-03-28 07:13 51°13.69 2°55.907 2.9 261 3.1 102930 73
2002-03-28 07:14 51°13.691 2°55.907 2.7 263 3.1 102930 73
2002-03-28 07:15 51°13.689 2°55.906 3.4 244 3.1 102930 73
2002-03-28 07:16 51°13.688 2°55.905 3.5 269 3.1 102930 73
2002-03-28 07:17 51°13.689 2°55.905 3.4 257 3.1 102930 73
2002-03-28 07:18 51°13.689 2°55.906 3 269 3.2 102930 73
2002-03-28 07:19 51°13.69 2°55.906 3.7 260 3.1 102930 73
2002-03-28 07:20 51°13.69 2°55.906 3.5 261 3.1 102930 73
2002-03-28 07:21 51°13.69 2°55.907 2.7 250 3.1 102930 73
2002-03-28 07:22 51°13.691 2°55.907 3.1 265 3.1 102930 74
2002-03-28 07:23 51°13.691 2°55.907 2.4 254 3.2 102930 74
2002-03-28 07:24 51°13.688 2°55.906 1.9 252 3.2 102930 75
2002-03-28 07:25 51°13.688 2°55.906 3.3 261 3.3 102930 75
2002-03-28 07:26 51°13.687 2°55.906 2.8 238 3.3 102930 73
2002-03-28 07:27 51°13.688 2°55.907 1.8 275 3.3 102930 74
2002-03-28 07:28 51°13.688 2°55.906 2.5 251 3.3 102930 74
2002-03-28 07:29 51°13.688 2°55.907 2.4 241 3.4 102930 74
2002-03-28 07:30 51°13.688 2°55.906 3.5 239 3.4 102930 74
2002-03-28 07:31 51°13.687 2°55.906 3.3 249 3.4 102930 74
2002-03-28 07:32 51°13.686 2°55.905 2.8 267 3.4 102920 74
2002-03-28 07:33 51°13.689 2°55.907 2.4 263 3.4 102920 73
2002-03-28 07:34 51°13.688 2°55.906 2.4 252 3.5 102920 74
2002-03-28 07:35 51°13.689 2°55.905 2.3 254 3.5 102920 74
2002-03-28 07:36 51°13.692 2°55.906 2.8 254 3.6 102930 74
2002-03-28 07:37 51°13.689 2°55.905 2.7 258 3.6 102920 74
2002-03-28 07:38 51°13.688 2°55.905 2.6 243 3.6 102920 74
2002-03-28 07:39 51°13.687 2°55.904 2.5 256 3.7 102920 74
2002-03-28 07:40 51°13.689 2°55.906 2.3 269 3.8 102920 74
2002-03-28 07:41 51°13.688 2°55.905 3.6 267 3.8 102920 73
2002-03-28 07:42 51°13.688 2°55.905 2.6 263 3.8 102920 73
2002-03-28 07:43 51°13.687 2°55.905 2 252 3.8 102920 73
2002-03-28 07:44 51°13.687 2°55.905 2.4 226 3.9 102920 73
2002-03-28 07:45 51°13.686 2°55.904 1.7 222 3.9 102930 73
2002-03-28 07:46 51°13.686 2°55.904 2.5 234 4 102920 73
2002-03-28 07:47 51°13.696 2°55.843 0.7 225 4 102930 72
2002-03-28 07:48 51°13.7 2°55.758 1.8 204 4.1 102930 72
2002-03-28 07:49 51°13.706 2°55.721 3.4 176 4.1 102930 72
2002-03-28 07:50 51°13.796 2°55.67 2.5 186 4.1 102920 71
2002-03-28 07:51 51°13.931 2°55.564 3.5 183 4 102920 72
2002-03-28 07:52 51°14.058 2°55.471 1.9 165 4 102920 73
2002-03-28 07:53 51°14.163 2°55.384 2.4 191 4 102920 72
2002-03-28 07:54 51°14.279 2°55.224 2.1 193 4.1 102920 72
2002-03-28 07:55 51°14.38 2°55.011 2.5 230 4.2 102920 72
2002-03-28 07:56 51°14.419 2°54.725 3.9 257 4.3 102920 71
2002-03-28 07:57 51°14.377 2°54.415 4.8 280 4.4 102910 71
2002-03-28 07:58 51°14.295 2°54.104 5 272 4.5 102910 71
2002-03-28 07:59 51°14.21 2°53.774 5.1 265 4.6 102910 70
2002-03-28 08:00 51°14.109 2°53.433 6.8 270 4.7 102910 70
2002-03-28 08:01 51°13.991 2°53.094 6.4 259 4.8 102910 68
2002-03-28 08:02 51°13.875 2°52.756 5.4 262 4.9 102900 68
2002-03-28 08:03 51°13.754 2°52.404 6.3 272 5 102910 66
2002-03-28 08:04 51°13.635 2°52.056 6.6 261 5.2 102900 65
2002-03-28 08:05 51°13.516 2°51.707 5.9 261 5.4 102900 64
2002-03-28 08:06 51°13.397 2°51.358 6.7 262 5.5 102900 64
2002-03-28 08:07 51°13.278 2°51.007 6.1 258 5.6 102900 63
2002-03-28 08:08 51°13.158 2°50.658 6.9 263 5.8 102900 64
2002-03-28 08:09 51°13.039 2°50.308 6.5 262 5.9 102900 62
2002-03-28 08:10 51°12.918 2°49.958 6.7 269 5.9 102890 62
2002-03-28 08:11 51°12.796 2°49.61 6.3 266 5.9 102900 62
2002-03-28 08:12 51°12.675 2°49.26 6.2 269 5.9 102900 64
2002-03-28 08:13 51°12.552 2°48.911 6.4 270 5.8 102900 64
2002-03-28 08:14 51°12.431 2°48.562 5.9 268 5.8 102900 66
2002-03-28 08:15 51°12.306 2°48.218 6.9 268 5.8 102900 65
2002-03-28 08:16 51°12.178 2°47.877 6.5 272 5.8 102890 67
2002-03-28 08:17 51°12.051 2°47.537 6.2 265 5.8 102900 66
2002-03-28 08:18 51°11.924 2°47.197 6.6 271 5.8 102890 67
2002-03-28 08:19 51°11.797 2°46.857 5.8 273 5.8 102900 66
2002-03-28 08:20 51°11.671 2°46.518 7 266 5.9 102900 66
2002-03-28 08:21 51°11.544 2°46.18 6.6 271 5.9 102900 65
2002-03-28 08:22 51°11.418 2°45.848 6.1 272 6 102900 65
2002-03-28 08:23 51°11.296 2°45.523 6.1 274 6.1 102900 65
2002-03-28 08:24 51°11.169 2°45.189 7.2 266 6.2 102900 64
2002-03-28 08:25 51°11.044 2°44.858 7.2 273 6.2 102900 64
2002-03-28 08:26 51°10.92 2°44.528 7.7 267 6.3 102900 64
2002-03-28 08:27 51°10.799 2°44.2 5.9 272 6.3 102890 65
2002-03-28 08:28 51°10.685 2°43.869 6.1 271 6.3 102900 65
2002-03-28 08:29 51°10.569 2°43.544 5.4 268 6.3 102910 66
2002-03-28 08:30 51°10.454 2°43.22 6.6 273 6.4 102900 66
2002-03-28 08:31 51°10.339 2°42.899 5.6 274 6.4 102910 64
2002-03-28 08:32 51°10.225 2°42.579 6 276 6.4 102900 65
2002-03-28 08:33 51°10.122 2°42.25 4.9 271 6.4 102910 64
2002-03-28 08:34 51°10.035 2°41.917 5.1 272 6.3 102910 63
2002-03-28 08:35 51°9.978 2°41.556 4.3 270 6.4 102910 65
2002-03-28 08:36 51°9.937 2°41.195 4 271 6.4 102910 64
2002-03-28 08:37 51°9.902 2°40.827 3.9 273 6.4 102910 64
2002-03-28 08:38 51°9.865 2°40.461 4.4 261 6.5 102910 64
2002-03-28 08:39 51°9.826 2°40.078 4 272 6.4 102910 64
2002-03-28 08:40 51°9.789 2°39.699 4.7 265 6.4 102910 64
2002-03-28 08:41 51°9.751 2°39.32 3.4 263 6.4 102910 64
2002-03-28 08:42 51°9.714 2°38.94 4 260 6.4 102900 64
2002-03-28 08:43 51°9.676 2°38.553 4 264 6.4 102910 64
2002-03-28 08:44 51°9.638 2°38.178 3.9 252 6.5 102910 65
2002-03-28 08:45 51°9.6 2°37.796 4.5 257 6.5 102900 65
2002-03-28 08:46 51°9.56 2°37.41 3.2 255 6.6 102900 65
2002-03-28 08:47 51°9.522 2°37.025 4.2 259 6.6 102900 63
2002-03-28 08:48 51°9.48 2°36.639 3.9 254 6.7 102900 64
2002-03-28 08:49 51°9.436 2°36.251 4.3 268 6.8 102900 64
2002-03-28 08:50 51°9.394 2°35.864 4.9 274 6.8 102900 62
2002-03-28 08:51 51°9.351 2°35.479 2.6 282 6.8 102890 61
2002-03-28 08:52 51°9.303 2°35.096 5.1 274 6.9 102890 62
2002-03-28 08:53 51°9.255 2°34.713 5.1 274 6.9 102900 61
2002-03-28 08:54 51°9.209 2°34.339 3.9 265 6.9 102900 61
2002-03-28 08:55 51°9.161 2°33.952 4.9 269 7 102900 62
2002-03-28 08:56 51°9.116 2°33.57 3.5 262 7 102890 62
2002-03-28 08:57 51°9.207 2°33.26 5.1 190 7 102900 62
2002-03-28 08:58 51°9.387 2°33.358 9.5 201 6.8 102870 62
2002-03-28 08:59 51°9.561 2°33.551 9.6 201 6.7 102870 64
2002-03-28 09:00 51°9.731 2°33.76 10.2 201 6.6 102870 62
2002-03-28 09:01 51°9.886 2°33.994 10.3 204 6.6 102870 64
2002-03-28 09:02 51°10.046 2°34.219 9.5 212 6.7 102870 64
2002-03-28 09:03 51°10.206 2°34.443 10.3 210 6.7 102870 65
2002-03-28 09:04 51°10.36 2°34.664 9 211 6.7 102870 65
2002-03-28 09:05 51°10.52 2°34.893 9.7 213 6.7 102870 65
2002-03-28 09:06 51°10.68 2°35.105 9.3 208 6.7 102870 65
2002-03-28 09:07 51°10.848 2°35.319 9.5 210 6.6 102870 65
2002-03-28 09:08 51°11.011 2°35.533 10.3 206 6.7 102870 66
2002-03-28 09:09 51°11.175 2°35.745 10.8 203 6.7 102870 62
2002-03-28 09:10 51°11.339 2°35.961 10.4 204 6.7 102870 67
2002-03-28 09:11 51°11.502 2°36.175 9.9 214 6.7 102870 63
2002-03-28 09:12 51°11.665 2°36.389 10.3 214 6.7 102870 64
2002-03-28 09:13 51°11.829 2°36.601 9.1 211 6.8 102870 62
2002-03-28 09:14 51°11.996 2°36.806 9.6 199 6.7 102870 60
2002-03-28 09:15 51°12.166 2°37.005 9.7 206 6.8 102870 64
2002-03-28 09:16 51°12.333 2°37.211 10.1 210 6.9 102870 64
2002-03-28 09:17 51°12.5 2°37.416 9.2 213 7 102870 62
2002-03-28 09:18 51°12.669 2°37.617 10.6 209 7 102870 63
2002-03-28 09:19 51°12.835 2°37.821 9.5 205 7.1 102870 64
2002-03-28 09:20 51°13.002 2°38.028 10.7 214 7.1 102860 65
2002-03-28 09:21 51°13.169 2°38.235 9.2 210 7.1 102870 66
2002-03-28 09:22 51°13.337 2°38.442 10.8 207 7.1 102870 65
2002-03-28 09:23 51°13.505 2°38.651 9.3 213 7 102860 65
2002-03-28 09:24 51°13.675 2°38.859 9.9 212 7 102860 65
2002-03-28 09:25 51°13.845 2°39.065 10.1 207 7.1 102860 64
2002-03-28 09:26 51°14.033 2°39.008 5.3 201 7 102870 64
2002-03-28 09:27 51°14.117 2°38.688 3.9 228 7 102880 66
2002-03-28 09:28 51°14.104 2°38.317 4 237 7.1 102890 68
2002-03-28 09:29 51°14.055 2°37.942 3.6 248 7.2 102880 67
2002-03-28 09:30 51°13.985 2°37.574 3.7 247 7.3 102880 65
2002-03-28 09:31 51°13.915 2°37.206 3.9 256 7.4 102880 63
2002-03-28 09:32 51°13.835 2°36.844 3.7 252 7.4 102880 62
2002-03-28 09:33 51°13.744 2°36.489 3.4 248 7.5 102880 62
2002-03-28 09:34 51°13.656 2°36.138 4.4 258 7.6 102880 63
2002-03-28 09:35 51°13.562 2°35.794 3.6 257 7.6 102880 62
2002-03-28 09:36 51°13.469 2°35.451 4.3 254 7.6 102880 62
2002-03-28 09:37 51°13.365 2°35.118 4.3 259 7.7 102870 64
2002-03-28 09:38 51°13.259 2°34.785 4.2 259 7.7 102880 64
2002-03-28 09:39 51°13.155 2°34.459 3.7 251 7.7 102870 64
2002-03-28 09:40 51°13.05 2°34.134 4.1 261 7.6 102870 64
2002-03-28 09:41 51°12.946 2°33.81 4.4 264 7.6 102880 63
2002-03-28 09:42 51°12.84 2°33.489 4.7 275 7.7 102870 65
2002-03-28 09:43 51°12.734 2°33.167 4.3 271 7.7 102870 61
2002-03-28 09:44 51°12.628 2°32.84 4.7 270 7.7 102870 61
2002-03-28 09:45 51°12.522 2°32.513 4.8 263 7.8 102870 61
2002-03-28 09:46 51°12.415 2°32.19 5.2 270 7.8 102870 60
2002-03-28 09:47 51°12.307 2°31.855 5.2 271 7.8 102860 59
2002-03-28 09:48 51°12.202 2°31.531 5 262 7.8 102870 59
2002-03-28 09:49 51°12.094 2°31.195 4 268 7.8 102860 60
2002-03-28 09:50 51°11.985 2°30.864 3.7 261 7.8 102860 60
2002-03-28 09:51 51°11.877 2°30.539 3.8 259 7.8 102860 61
2002-03-28 09:52 51°11.768 2°30.217 3.6 266 7.8 102850 62
2002-03-28 09:53 51°11.662 2°29.895 3.3 264 7.8 102850 60
2002-03-28 09:54 51°11.576 2°29.562 3.4 261 7.9 102850 62
2002-03-28 09:55 51°11.494 2°29.229 3.6 255 7.9 102850 62
2002-03-28 09:56 51°11.43 2°28.898 2.4 246 7.9 102850 60
2002-03-28 09:57 51°11.375 2°28.56 2 243 8 102850 60
2002-03-28 09:58 51°11.327 2°28.241 2.5 248 8.1 102840 60
2002-03-28 09:59 51°11.291 2°27.918 1.8 248 8.2 102840 59
2002-03-28 10:00 51°11.26 2°27.594 1.6 242 8.2 102840 57
2002-03-28 10:01 51°11.236 2°27.268 2.8 223 8.2 102840 60
2002-03-28 10:02 51°11.218 2°26.934 2.3 230 8.2 102840 60
2002-03-28 10:03 51°11.204 2°26.611 2.8 229 8.1 102830 59
2002-03-28 10:04 51°11.194 2°26.28 2.9 243 8 102830 59
2002-03-28 10:05 51°11.188 2°25.949 2.9 233 8 102830 62
2002-03-28 10:06 51°11.236 2°25.639 4 191 8 102830 61
2002-03-28 10:07 51°11.414 2°25.473 7.4 193 7.7 102810 62
2002-03-28 10:08 51°11.636 2°25.503 9.3 202 7.5 102810 64
2002-03-28 10:09 51°11.858 2°25.48 8.2 193 7.4 102800 64
2002-03-28 10:10 51°12.081 2°25.443 8.8 197 7.3 102800 63
2002-03-28 10:11 51°12.306 2°25.441 9.5 196 7.3 102800 63
2002-03-28 10:12 51°12.531 2°25.477 8.6 206 7.3 102800 63
2002-03-28 10:13 51°12.745 2°25.589 11.7 215 7.3 102800 62
2002-03-28 10:14 51°12.924 2°25.815 11.4 212 7.5 102800 65
2002-03-28 10:15 51°13.119 2°26.007 10.1 215 7.6 102800 61
2002-03-28 10:16 51°13.27 2°26.286 13.3 223 7.7 102800 65
2002-03-28 10:17 51°13.4 2°26.606 12 224 7.7 102800 64
2002-03-28 10:18 51°13.524 2°26.931 11.9 226 7.7 102800 64
2002-03-28 10:19 51°13.656 2°27.232 12.6 221 7.7 102800 65
2002-03-28 10:20 51°13.794 2°27.533 11.9 218 7.7 102790 62
2002-03-28 10:21 51°13.932 2°27.84 12.2 223 7.8 102800 64
2002-03-28 10:22 51°14.066 2°28.135 12 225 7.8 102800 67
2002-03-28 10:23 51°14.205 2°28.433 11.9 221 7.7 102800 65
2002-03-28 10:24 51°14.344 2°28.733 12.9 223 7.7 102790 65
2002-03-28 10:25 51°14.483 2°29.036 11.6 227 7.7 102800 65
2002-03-28 10:26 51°14.626 2°29.336 12.3 225 7.8 102800 64
2002-03-28 10:27 51°14.768 2°29.641 12.2 225 7.8 102800 67
2002-03-28 10:28 51°14.905 2°29.955 12.5 225 7.7 102790 66
2002-03-28 10:29 51°15.045 2°30.276 12.1 227 7.7 102790 66
2002-03-28 10:30 51°15.18 2°30.589 13.5 221 7.7 102800 68
2002-03-28 10:31 51°15.318 2°30.908 12.8 226 7.7 102800 70
2002-03-28 10:32 51°15.452 2°31.235 12.9 231 7.7 102790 69
2002-03-28 10:33 51°15.592 2°31.565 12.8 226 7.6 102790 69
2002-03-28 10:34 51°15.727 2°31.886 13.1 223 7.6 102790 68
2002-03-28 10:35 51°15.863 2°32.215 14 224 7.6 102790 69
2002-03-28 10:36 51°15.989 2°32.555 14 230 7.6 102790 68
2002-03-28 10:37 51°16.099 2°32.91 13.1 233 7.6 102790 68
2002-03-28 10:38 51°16.097 2°33.3 14.2 255 7.6 102770 69
2002-03-28 10:39 51°15.996 2°33.669 12.1 251 7.7 102760 69
2002-03-28 10:40 51°15.894 2°34.037 13 257 7.7 102770 69
2002-03-28 10:41 51°15.798 2°34.402 13.7 253 7.8 102760 71
2002-03-28 10:42 51°15.703 2°34.754 13.1 256 7.8 102760 71
2002-03-28 10:43 51°15.681 2°35.085 12.6 226 7.8 102760 68
2002-03-28 10:44 51°15.852 2°35.332 13.8 220 7.7 102790 69
2002-03-28 10:45 51°16.022 2°35.605 13.7 227 7.7 102780 67
2002-03-28 10:46 51°16.192 2°35.873 13.8 226 7.7 102780 67
2002-03-28 10:47 51°16.364 2°36.137 13.7 221 7.8 102780 69
2002-03-28 10:48 51°16.533 2°36.401 15.4 229 7.8 102770 66
2002-03-28 10:49 51°16.709 2°36.676 14.3 229 7.8 102770 68
2002-03-28 10:50 51°16.881 2°36.94 14.9 223 7.7 102780 68
2002-03-28 10:51 51°17.053 2°37.211 13.6 222 7.7 102780 70
2002-03-28 10:52 51°17.245 2°37.39 9 176 7.7 102770 71
2002-03-28 10:53 51°17.377 2°37.144 6.5 171 7.5 102790 70
2002-03-28 10:54 51°17.558 2°36.938 7.1 179 7.4 102770 71
2002-03-28 10:55 51°17.73 2°36.724 8.5 165 7.3 102780 71
2002-03-28 10:56 51°17.893 2°36.498 8 172 7.3 102790 73
2002-03-28 10:57 51°18.065 2°36.295 9.3 173 7.3 102780 72
2002-03-28 10:58 51°18.239 2°36.099 7.9 178 7.3 102780 72
2002-03-28 10:59 51°18.414 2°35.895 9.8 171 7.2 102780 70
2002-03-28 11:00 51°18.601 2°35.7 5.9 185 7.3 102770 72
2002-03-28 11:01 51°18.786 2°35.51 8.3 178 7.3 102780 73
2002-03-28 11:02 51°18.969 2°35.322 7.7 183 7.3 102780 72
2002-03-28 11:03 51°19.158 2°35.451 13.3 230 7.4 102770 72
2002-03-28 11:04 51°19.255 2°35.823 15.6 237 7.5 102770 72
2002-03-28 11:05 51°19.367 2°36.181 15 220 7.6 102770 69
2002-03-28 11:06 51°19.517 2°36.504 14.6 226 7.7 102760 70
2002-03-28 11:07 51°19.676 2°36.808 12.8 226 7.8 102770 71
2002-03-28 11:08 51°19.843 2°37.116 14.4 221 7.7 102760 69
2002-03-28 11:09 51°20.013 2°37.41 14.8 224 7.7 102760 68
2002-03-28 11:10 51°20.178 2°37.7 14.5 226 7.7 102760 67
2002-03-28 11:11 51°20.347 2°37.999 15 219 7.7 102770 68
2002-03-28 11:12 51°20.512 2°38.282 14.8 223 7.7 102760 69
2002-03-28 11:13 51°20.681 2°38.574 15.5 226 7.7 102770 68
2002-03-28 11:14 51°20.847 2°38.856 14.4 220 7.7 102770 69
2002-03-28 11:15 51°21.019 2°39.146 15.5 226 7.7 102770 72
2002-03-28 11:16 51°21.069 2°39.473 13.1 262 7.7 102740 71
2002-03-28 11:17 51°20.995 2°39.821 12.7 252 7.7 102740 73
2002-03-28 11:18 51°20.942 2°40.203 15 255 7.7 102740 72
2002-03-28 11:19 51°20.88 2°40.567 14.1 255 7.7 102730 73
2002-03-28 11:20 51°20.819 2°40.941 14.2 255 7.7 102740 73
2002-03-28 11:21 51°20.765 2°41.326 15.1 255 7.8 102730 72
2002-03-28 11:22 51°20.712 2°41.703 14.7 252 7.8 102720 72
2002-03-28 11:23 51°20.657 2°42.078 14.9 256 7.8 102720 70
2002-03-28 11:24 51°20.601 2°42.465 15 255 7.8 102730 71
2002-03-28 11:25 51°20.551 2°42.839 15.1 258 7.8 102720 70
2002-03-28 11:26 51°20.505 2°43.206 15 258 7.9 102730 71
2002-03-28 11:27 51°20.457 2°43.565 14.4 258 7.9 102710 71
2002-03-28 11:28 51°20.408 2°43.934 15.5 258 7.9 102720 70
2002-03-28 11:29 51°20.358 2°44.308 15.4 258 7.9 102710 70
2002-03-28 11:30 51°20.309 2°44.677 14.9 258 8 102720 72
2002-03-28 11:31 51°20.262 2°45.044 15.6 256 8 102710 69
2002-03-28 11:32 51°20.214 2°45.419 15.3 255 8 102720 70
2002-03-28 11:33 51°20.16 2°45.802 14.8 258 8 102700 70
2002-03-28 11:34 51°20.098 2°46.176 14.9 257 8.1 102710 69
2002-03-28 11:35 51°20.031 2°46.555 14.8 257 8.1 102710 69
2002-03-28 11:36 51°19.939 2°46.9 10.9 285 8.1 102700 68
2002-03-28 11:37 51°19.763 2°46.859 1.5 319 8.1 102760 68
2002-03-28 11:38 51°19.592 2°46.713 2 319 8.1 102760 70
2002-03-28 11:39 51°19.415 2°46.563 3.5 305 8.1 102760 69
2002-03-28 11:40 51°19.237 2°46.421 1.8 290 8.2 102760 68
2002-03-28 11:41 51°19.055 2°46.278 2.3 321 8.2 102750 69
2002-03-28 11:42 51°18.878 2°46.141 1.6 310 8.3 102750 69
2002-03-28 11:43 51°18.699 2°45.992 3.4 301 8.3 102750 69
2002-03-28 11:44 51°18.517 2°45.839 4.2 295 8.3 102750 69
2002-03-28 11:45 51°18.334 2°45.692 2.3 320 8.4 102750 68
2002-03-28 11:46 51°18.157 2°45.538 1.5 315 8.4 102740 68
2002-03-28 11:47 51°17.98 2°45.38 1.5 328 8.4 102740 68
2002-03-28 11:48 51°17.799 2°45.219 1.2 331 8.4 102740 67
2002-03-28 11:49 51°17.617 2°45.071 1.1 316 8.4 102730 68
2002-03-28 11:50 51°17.436 2°44.919 3.6 296 8.4 102740 68
2002-03-28 11:51 51°17.254 2°44.769 2.3 316 8.4 102740 67
2002-03-28 11:52 51°17.061 2°44.648 4 306 8.5 102740 68
2002-03-28 11:53 51°16.867 2°44.526 3.5 303 8.5 102730 68
2002-03-28 11:54 51°16.677 2°44.404 1.4 346 8.5 102730 66
2002-03-28 11:55 51°16.484 2°44.265 2.2 322 8.4 102730 67
2002-03-28 11:56 51°16.304 2°44.107 1 333 8.4 102730 65
2002-03-28 11:57 51°16.124 2°43.95 1 337 8.5 102730 68
2002-03-28 11:58 51°15.942 2°43.792 1 322 8.5 102730 68
2002-03-28 11:59 51°15.76 2°43.635 1.3 327 8.5 102730 68
2002-03-28 12:00 51°15.58 2°43.484 1.3 346 8.5 102730 68
2002-03-28 12:01 51°15.393 2°43.326 0.8 338 8.5 102730 69
2002-03-28 12:02 51°15.209 2°43.174 1.7 341 8.5 102720 69
2002-03-28 12:03 51°15.026 2°43.022 2.7 359 8.5 102720 68
2002-03-28 12:04 51°14.843 2°42.874 1.2 325 8.6 102720 70
2002-03-28 12:05 51°14.66 2°42.723 0.4 312 8.6 102720 71
2002-03-28 12:06 51°14.476 2°42.572 1 340 8.6 102720 70
2002-03-28 12:07 51°14.295 2°42.425 0.8 342 8.6 102720 69
2002-03-28 12:08 51°14.106 2°42.304 5.3 311 8.7 102710 71
2002-03-28 12:09 51°13.963 2°42.535 15 261 8.7 102670 70
2002-03-28 12:10 51°14.062 2°42.867 15.4 236 8.7 102670 68
2002-03-28 12:11 51°14.198 2°43.203 16.4 238 8.7 102670 70
2002-03-28 12:12 51°14.335 2°43.532 16.6 236 8.7 102670 69
2002-03-28 12:13 51°14.474 2°43.876 16.8 236 8.7 102650 68
2002-03-28 12:14 51°14.592 2°44.233 17.1 235 8.7 102660 68
2002-03-28 12:15 51°14.713 2°44.588 17.2 239 8.8 102670 68
2002-03-28 12:16 51°14.832 2°44.94 16.4 240 8.8 102660 67
2002-03-28 12:17 51°14.954 2°45.301 16.5 241 8.8 102660 68
2002-03-28 12:18 51°15.074 2°45.657 17.6 238 8.8 102650 69
2002-03-28 12:19 51°15.166 2°46.017 17 258 8.8 102650 67
2002-03-28 12:20 51°15.077 2°46.347 11.2 301 8.7 102640 68
2002-03-28 12:21 51°14.894 2°46.29 0.7 61 8.7 102690 70
2002-03-28 12:22 51°14.7 2°46.19 1.7 326 8.8 102690 70
2002-03-28 12:23 51°14.506 2°46.059 1.1 294 8.8 102690 69
2002-03-28 12:24 51°14.314 2°45.921 1.5 334 8.8 102690 69
2002-03-28 12:25 51°14.12 2°45.791 1.3 329 8.8 102680 68
2002-03-28 12:26 51°13.926 2°45.668 1.4 343 8.7 102680 68
2002-03-28 12:27 51°13.733 2°45.544 0.8 337 8.8 102680 68
2002-03-28 12:28 51°13.537 2°45.418 2.3 309 8.8 102680 68
2002-03-28 12:29 51°13.341 2°45.297 1.3 345 8.8 102680 68
2002-03-28 12:30 51°13.151 2°45.184 3.2 309 8.8 102670 67
2002-03-28 12:31 51°12.954 2°45.069 1.1 321 8.9 102670 68
2002-03-28 12:32 51°12.753 2°44.98 2 299 8.8 102670 68
2002-03-28 12:33 51°12.568 2°45.095 13.1 277 8.9 102660 69
2002-03-28 12:34 51°12.574 2°45.433 16.5 238 9 102630 69
2002-03-28 12:35 51°12.703 2°45.768 17.9 238 9 102640 68
2002-03-28 12:36 51°12.823 2°46.104 17.8 242 9 102640 67
2002-03-28 12:37 51°12.941 2°46.441 18.5 241 9.1 102620 68
2002-03-28 12:38 51°13.052 2°46.782 17.9 242 9 102630 68
2002-03-28 12:39 51°13.164 2°47.124 17.2 242 9 102630 68
2002-03-28 12:40 51°13.276 2°47.466 17.1 246 9.1 102640 70
2002-03-28 12:41 51°13.388 2°47.808 16.5 244 9 102640 66
2002-03-28 12:42 51°13.492 2°48.155 15.9 242 9 102620 68
2002-03-28 12:43 51°13.597 2°48.5 17.2 241 9.1 102630 67
2002-03-28 12:44 51°13.703 2°48.845 16.1 236 9.1 102630 67
2002-03-28 12:45 51°13.81 2°49.181 17.3 241 9.1 102640 69
2002-03-28 12:46 51°13.912 2°49.536 16.8 243 9.1 102620 67
2002-03-28 12:47 51°14.013 2°49.884 17.8 243 9.2 102630 69
2002-03-28 12:48 51°14.115 2°50.231 16.4 243 9.1 102630 68
2002-03-28 12:49 51°14.216 2°50.579 16.6 243 9.1 102620 67
2002-03-28 12:50 51°14.317 2°50.927 18.1 244 9.2 102620 67
2002-03-28 12:51 51°14.419 2°51.276 17.5 244 9.2 102620 67
2002-03-28 12:52 51°14.52 2°51.624 16.4 244 9.2 102620 68
2002-03-28 12:53 51°14.601 2°51.985 16.5 245 9.2 102630 68
2002-03-28 12:54 51°14.666 2°52.352 16.6 252 9.2 102620 67
2002-03-28 12:55 51°14.706 2°52.724 15.6 256 9.3 102620 68
2002-03-28 12:56 51°14.708 2°53.103 15.9 263 9.3 102630 68
2002-03-28 12:57 51°14.652 2°53.466 14.4 266 9.3 102600 67
2002-03-28 12:58 51°14.616 2°53.838 15.7 259 9.3 102620 68
2002-03-28 12:59 51°14.651 2°54.22 16 244 9.4 102610 67
2002-03-28 13:00 51°14.736 2°54.522 11.6 258 9.4 102630 68
2002-03-28 13:01 51°14.75 2°54.738 11.6 263 9.4 102620 68
2002-03-28 13:02 51°14.734 2°54.879 4.2 320 9.4 102630 67
2002-03-28 13:03 51°14.696 2°54.921 7.3 4 9.3 102650 68
2002-03-28 13:04 51°14.693 2°54.942 7.8 29 9.3 102650 68
2002-03-28 13:05 51°14.695 2°54.96 8.7 30 9.3 102640 69
2002-03-28 13:06 51°14.69 2°54.971 7.3 22 9.2 102640 68
2002-03-28 13:07 51°14.633 2°54.961 5.1 352 9.3 102650 69
2002-03-28 13:08 51°14.527 2°54.962 1.1 336 9.3 102640 68
2002-03-28 13:09 51°14.41 2°55.02 5.9 298 9.4 102640 70
2002-03-28 13:10 51°14.337 2°55.12 7.4 291 9.5 102630 69
2002-03-28 13:11 51°14.274 2°55.236 7.7 287 9.6 102630 66
2002-03-28 13:12 51°14.205 2°55.34 6.8 296 9.7 102630 67
2002-03-28 13:13 51°14.12 2°55.416 6.7 295 9.8 102640 64
2002-03-28 13:14 51°14.019 2°55.487 8.3 277 10 102640 61
2002-03-28 13:15 51°13.901 2°55.577 9.8 277 10.4 102630 47
2002-03-28 13:16 51°13.75 2°55.708 10.7 263 11 102620 44